createdAt,value
2022-08-26T00:00:18.976Z,82.92
2022-08-26T00:02:24.200Z,83.11
2022-08-26T00:04:29.249Z,83.22
2022-08-26T00:06:35.175Z,83.35
2022-08-26T00:08:40.598Z,83.35
2022-08-26T00:10:46.469Z,83.38
2022-08-26T00:12:51.864Z,83.49
2022-08-26T00:14:56.669Z,83.50
2022-08-26T00:17:01.477Z,83.35
2022-08-26T00:19:06.274Z,83.32
2022-08-26T00:21:12.849Z,83.29
2022-08-26T00:23:17.854Z,83.31
2022-08-26T00:25:22.999Z,83.21
2022-08-26T00:27:30.381Z,83.23
2022-08-26T00:29:37.877Z,82.98
2022-08-26T00:31:42.899Z,82.91
2022-08-26T00:33:50.076Z,83.09
2022-08-26T00:35:55.098Z,83.24
2022-08-26T00:38:00.846Z,83.47
2022-08-26T00:40:08.919Z,83.61
2022-08-26T00:42:16.090Z,83.57
2022-08-26T00:44:20.902Z,83.60
2022-08-26T00:46:29.679Z,83.65
2022-08-26T00:48:37.679Z,83.68
2022-08-26T00:50:48.416Z,83.72
2022-08-26T00:52:54.749Z,83.71
2022-08-26T00:55:09.203Z,83.71
2022-08-26T00:57:18.054Z,83.62
2022-08-26T00:59:24.019Z,83.62
2022-08-26T01:01:28.804Z,83.56
2022-08-26T01:03:37.434Z,83.49
2022-08-26T01:05:43.055Z,83.54
2022-08-26T01:07:47.906Z,83.67
2022-08-26T01:09:55.004Z,83.73
2022-08-26T01:12:02.909Z,83.72
2022-08-26T01:14:08.680Z,83.83
2022-08-26T01:16:16.157Z,83.92
2022-08-26T01:18:22.160Z,84.13
2022-08-26T01:20:36.405Z,84.29
2022-08-26T01:22:48.734Z,84.35
2022-08-26T01:24:59.838Z,84.36
2022-08-26T01:27:08.964Z,84.17
2022-08-26T01:29:18.588Z,84.23
2022-08-26T01:31:27.841Z,84.29
2022-08-26T01:33:42.103Z,84.41
2022-08-26T01:35:47.939Z,84.50
2022-08-26T01:37:55.931Z,84.50
2022-08-26T01:40:00.980Z,84.52
2022-08-26T01:42:10.265Z,84.60
2022-08-26T01:44:19.920Z,84.73
2022-08-26T01:46:26.825Z,84.78
2022-08-26T01:48:34.111Z,84.88
2022-08-26T01:50:43.454Z,84.82
2022-08-26T01:53:04.741Z,84.49
2022-08-26T01:55:12.312Z,84.35
2022-08-26T01:57:19.409Z,84.48
2022-08-26T01:59:25.490Z,84.50
2022-08-26T02:01:31.323Z,84.34
2022-08-26T02:03:42.283Z,84.10
2022-08-26T02:05:51.511Z,84.00
2022-08-26T02:07:57.095Z,84.06
2022-08-26T02:10:02.509Z,84.20
2022-08-26T02:12:10.742Z,84.13
2022-08-26T02:14:19.333Z,84.42
2022-08-26T02:16:27.008Z,84.56
2022-08-26T02:18:37.272Z,84.61
2022-08-26T02:20:42.086Z,84.71
2022-08-26T02:22:47.165Z,84.66
2022-08-26T02:24:54.084Z,84.78
2022-08-26T02:27:00.403Z,84.87
2022-08-26T02:29:09.775Z,84.85
2022-08-26T02:31:14.560Z,84.78
2022-08-26T02:33:19.260Z,84.80
2022-08-26T02:35:25.614Z,84.81
2022-08-26T02:37:32.006Z,84.78
2022-08-26T02:39:40.929Z,84.74
2022-08-26T02:41:45.617Z,84.72
2022-08-26T02:43:50.285Z,84.79
2022-08-26T02:45:55.151Z,85.11
2022-08-26T02:47:59.893Z,85.27
2022-08-26T02:50:06.582Z,85.28
2022-08-26T02:52:13.257Z,85.21
2022-08-26T02:54:20.098Z,85.06
2022-08-26T02:56:25.363Z,85.33
2022-08-26T02:58:30.364Z,85.26
2022-08-26T03:00:38.071Z,85.48
2022-08-26T03:02:43.329Z,85.53
2022-08-26T03:04:58.042Z,85.67
2022-08-26T03:07:07.466Z,85.72
2022-08-26T03:09:18.573Z,85.72
2022-08-26T03:11:24.102Z,85.64
2022-08-26T03:13:29.464Z,85.81
2022-08-26T03:15:34.548Z,85.75
2022-08-26T03:17:39.294Z,86.06
2022-08-26T03:19:44.429Z,86.04
2022-08-26T03:21:50.213Z,85.96
2022-08-26T03:23:58.739Z,86.05
2022-08-26T03:26:04.417Z,86.21
2022-08-26T03:28:09.662Z,86.41
2022-08-26T03:30:15.979Z,86.47
2022-08-26T03:32:20.696Z,86.40
2022-08-26T03:34:25.510Z,86.33
2022-08-26T03:36:30.593Z,86.22
2022-08-26T03:38:35.235Z,86.27
2022-08-26T03:40:40.549Z,86.22
2022-08-26T03:42:45.640Z,86.19
2022-08-26T03:44:50.565Z,86.34
2022-08-26T03:46:55.742Z,86.24
2022-08-26T03:49:01.454Z,86.25
2022-08-26T03:51:11.450Z,86.36
2022-08-26T03:53:16.335Z,86.17
2022-08-26T03:55:28.335Z,86.33
2022-08-26T03:57:33.051Z,86.31
2022-08-26T03:59:37.792Z,86.35
2022-08-26T04:01:46.206Z,86.24
2022-08-26T04:03:52.813Z,86.13
2022-08-26T04:05:57.507Z,86.16
2022-08-26T04:08:02.360Z,86.13
2022-08-26T04:10:08.787Z,86.26
2022-08-26T04:12:14.711Z,86.12
2022-08-26T04:14:22.061Z,86.11
2022-08-26T04:16:27.407Z,86.18
2022-08-26T04:18:37.061Z,86.25
2022-08-26T04:20:42.044Z,86.51
2022-08-26T04:22:46.972Z,86.49
2022-08-26T04:24:51.777Z,86.59
2022-08-26T04:26:56.516Z,86.58
2022-08-26T04:29:01.208Z,86.53
2022-08-26T04:31:06.182Z,86.60
2022-08-26T04:33:12.980Z,86.65
2022-08-26T04:35:18.181Z,86.96
2022-08-26T04:37:24.841Z,86.96
2022-08-26T04:39:29.645Z,87.25
2022-08-26T04:41:36.768Z,87.25
2022-08-26T04:43:41.620Z,87.37
2022-08-26T04:45:46.425Z,87.61
2022-08-26T04:47:54.307Z,87.53
2022-08-26T04:49:59.046Z,87.21
2022-08-26T04:52:04.372Z,87.03
2022-08-26T04:54:09.850Z,86.80
2022-08-26T04:56:19.057Z,86.72
2022-08-26T04:58:25.385Z,86.43
2022-08-26T05:00:30.495Z,86.23
2022-08-26T05:02:35.563Z,86.14
2022-08-26T05:04:40.347Z,85.98
2022-08-26T05:06:45.326Z,85.97
2022-08-26T05:08:50.110Z,85.95
2022-08-26T05:10:55.570Z,85.90
2022-08-26T05:13:00.669Z,85.87
2022-08-26T05:15:06.704Z,85.69
2022-08-26T05:17:14.924Z,85.40
2022-08-26T05:19:19.895Z,85.23
2022-08-26T05:21:27.902Z,85.05
2022-08-26T05:23:35.117Z,84.95
2022-08-26T05:25:42.434Z,84.82
2022-08-26T05:27:47.219Z,84.61
2022-08-26T05:29:56.072Z,84.44
2022-08-26T05:32:01.576Z,84.59
2022-08-26T05:34:08.390Z,84.24
2022-08-26T05:36:16.445Z,84.25
2022-08-26T05:38:22.498Z,84.10
2022-08-26T05:40:27.776Z,84.00
2022-08-26T05:42:32.755Z,83.71
2022-08-26T05:44:53.720Z,83.52
2022-08-26T05:47:00.545Z,83.28
2022-08-26T05:49:12.667Z,83.39
2022-08-26T05:51:17.935Z,83.33
2022-08-26T05:53:23.987Z,83.16
2022-08-26T05:55:30.829Z,83.10
2022-08-26T05:57:40.396Z,82.84
2022-08-26T05:59:47.640Z,82.72
2022-08-26T06:01:53.659Z,82.72
2022-08-26T06:04:01.699Z,82.55
2022-08-26T06:06:09.943Z,82.91
2022-08-26T06:08:15.418Z,83.04
2022-08-26T06:10:33.402Z,83.18
2022-08-26T06:12:38.193Z,83.11
2022-08-26T06:14:43.021Z,83.34
2022-08-26T06:16:47.764Z,83.33
2022-08-26T06:18:53.519Z,83.37
2022-08-26T06:21:01.751Z,83.38
2022-08-26T06:23:06.747Z,83.39
2022-08-26T06:25:12.796Z,83.49
2022-08-26T06:27:17.557Z,83.40
2022-08-26T06:29:24.863Z,83.23
2022-08-26T06:31:32.165Z,83.08
2022-08-26T06:33:38.082Z,82.82
2022-08-26T06:35:44.279Z,82.79
2022-08-26T06:37:49.026Z,82.33
2022-08-26T06:39:54.324Z,82.16
2022-08-26T06:41:59.362Z,82.09
2022-08-26T06:44:06.264Z,81.59
2022-08-26T06:46:13.728Z,81.41
2022-08-26T06:48:20.674Z,81.22
2022-08-26T06:50:26.309Z,80.91
2022-08-26T06:52:31.170Z,80.74
2022-08-26T06:54:35.978Z,80.47
2022-08-26T06:56:44.517Z,80.36
2022-08-26T06:58:53.046Z,80.37
2022-08-26T07:01:03.839Z,80.04
2022-08-26T07:03:16.029Z,79.27
2022-08-26T07:05:20.916Z,79.21
2022-08-26T07:07:25.641Z,78.84
2022-08-26T07:09:31.316Z,78.95
2022-08-26T07:11:37.066Z,78.62
2022-08-26T07:13:42.045Z,78.77
2022-08-26T07:15:47.924Z,78.69
2022-08-26T07:17:58.002Z,78.25
2022-08-26T07:20:03.312Z,77.96
2022-08-26T07:22:09.579Z,77.36
2022-08-26T07:24:14.755Z,76.71
2022-08-26T07:26:23.231Z,76.36
2022-08-26T07:28:29.748Z,76.23
2022-08-26T07:30:38.774Z,75.82
2022-08-26T07:32:43.583Z,75.90
2022-08-26T07:34:51.469Z,75.29
2022-08-26T07:36:57.048Z,75.14
2022-08-26T07:39:03.409Z,75.47
2022-08-26T07:41:11.612Z,74.90
2022-08-26T07:43:19.700Z,74.42
2022-08-26T07:45:25.657Z,74.45
2022-08-26T07:47:30.876Z,73.86
2022-08-26T07:49:36.414Z,73.98
2022-08-26T07:51:41.860Z,73.40
2022-08-26T07:53:48.073Z,73.08
2022-08-26T07:55:57.335Z,72.85
2022-08-26T07:58:02.796Z,72.19
2022-08-26T08:00:12.409Z,71.68
2022-08-26T08:02:17.741Z,71.37
2022-08-26T08:04:26.518Z,71.06
2022-08-26T08:06:31.845Z,70.62
2022-08-26T08:08:36.763Z,70.29
2022-08-26T08:10:41.679Z,69.62
2022-08-26T08:12:54.724Z,70.14
2022-08-26T08:14:59.607Z,70.09
2022-08-26T08:17:04.652Z,69.78
2022-08-26T08:19:10.088Z,70.05
2022-08-26T08:21:21.709Z,69.78
2022-08-26T08:23:29.262Z,69.41
2022-08-26T08:25:34.584Z,69.27
2022-08-26T08:27:40.686Z,68.72
2022-08-26T08:29:46.626Z,67.77
2022-08-26T08:31:58.785Z,67.94
2022-08-26T08:34:04.987Z,67.58
2022-08-26T08:36:10.098Z,67.68
2022-08-26T08:38:23.224Z,67.67
2022-08-26T08:40:29.409Z,67.46
2022-08-26T08:42:43.664Z,67.18
2022-08-26T08:44:52.793Z,66.56
2022-08-26T08:47:03.103Z,66.17
2022-08-26T08:49:08.845Z,65.54
2022-08-26T08:51:24.763Z,65.68
2022-08-26T08:53:33.774Z,65.66
2022-08-26T08:55:51.492Z,65.49
2022-08-26T08:58:04.521Z,65.24
2022-08-26T09:00:16.892Z,64.85
2022-08-26T09:02:32.193Z,64.41
2022-08-26T09:04:54.388Z,64.74
2022-08-26T09:07:02.554Z,64.20
2022-08-26T09:09:07.790Z,64.47
2022-08-26T09:11:14.008Z,64.74
2022-08-26T09:13:26.290Z,65.15
2022-08-26T09:15:45.003Z,64.25
2022-08-26T09:17:56.227Z,64.33
2022-08-26T09:20:12.288Z,63.75
2022-08-26T09:22:32.336Z,63.77
2022-08-26T09:24:42.033Z,62.71
2022-08-26T09:26:53.102Z,62.19
2022-08-26T09:29:00.324Z,61.88
2022-08-26T09:31:13.717Z,61.24
2022-08-26T09:33:26.914Z,61.09
2022-08-26T09:35:34.003Z,61.41
2022-08-26T09:37:43.474Z,61.49
2022-08-26T09:39:48.935Z,60.69
2022-08-26T09:42:05.025Z,59.72
2022-08-26T09:44:25.799Z,59.89
2022-08-26T09:46:31.845Z,58.08
2022-08-26T09:48:40.561Z,59.14
2022-08-26T09:50:55.686Z,58.94
2022-08-26T09:53:13.197Z,58.58
2022-08-26T09:55:24.078Z,58.50
2022-08-26T09:57:30.703Z,57.95
2022-08-26T09:59:35.602Z,57.97
2022-08-26T10:01:42.701Z,57.77
2022-08-26T10:03:47.553Z,57.43
2022-08-26T10:06:00.777Z,56.42
2022-08-26T10:08:19.900Z,56.21
2022-08-26T10:10:33.036Z,55.45
2022-08-26T10:12:44.643Z,54.95
2022-08-26T10:14:52.920Z,55.91
2022-08-26T10:17:02.074Z,55.62
2022-08-26T10:19:11.576Z,55.39
2022-08-26T10:21:23.450Z,54.27
2022-08-26T10:23:32.998Z,54.52
2022-08-26T10:25:42.463Z,53.99
2022-08-26T10:27:54.627Z,54.22
2022-08-26T10:30:07.132Z,54.07
2022-08-26T10:32:19.105Z,53.90
2022-08-26T10:34:24.195Z,53.91
2022-08-26T10:36:46.976Z,53.90
2022-08-26T10:39:05.090Z,53.45
2022-08-26T10:41:16.795Z,53.18
2022-08-26T10:43:26.027Z,53.27
2022-08-26T10:45:37.445Z,52.98
2022-08-26T10:47:50.289Z,53.02
2022-08-26T10:50:00.476Z,53.02
2022-08-26T10:52:16.790Z,53.04
2022-08-26T10:54:30.042Z,51.96
2022-08-26T10:56:44.426Z,52.44
2022-08-26T10:59:03.954Z,51.90
2022-08-26T11:01:17.119Z,51.76
2022-08-26T11:03:38.309Z,51.81
2022-08-26T11:05:43.105Z,51.47
2022-08-26T11:07:48.812Z,51.67
2022-08-26T11:09:54.540Z,52.11
2022-08-26T11:12:01.873Z,52.16
2022-08-26T11:14:10.705Z,51.21
2022-08-26T11:16:33.721Z,49.92
2022-08-26T11:18:51.412Z,50.46
2022-08-26T11:20:56.196Z,49.98
2022-08-26T11:23:45.812Z,48.90
2022-08-26T11:26:16.439Z,48.87
2022-08-26T11:28:44.180Z,49.91
2022-08-26T11:30:56.956Z,50.12
2022-08-26T11:33:03.277Z,49.48
2022-08-26T11:35:13.308Z,48.66
2022-08-26T11:39:28.762Z,49.16
2022-08-26T11:41:34.884Z,48.85
2022-08-26T11:43:41.071Z,49.26
2022-08-26T11:45:48.231Z,49.30
2022-08-26T11:47:55.502Z,49.44
2022-08-26T11:50:24.557Z,49.84
2022-08-26T11:52:29.277Z,49.73
2022-08-26T11:54:34.544Z,48.70
2022-08-26T11:56:42.136Z,47.89
2022-08-26T11:58:47.345Z,47.67
2022-08-26T12:00:55.790Z,47.81
2022-08-26T12:03:06.272Z,47.32
2022-08-26T12:05:12.962Z,47.00
2022-08-26T12:07:23.792Z,46.72
2022-08-26T12:09:33.219Z,47.67
2022-08-26T12:11:39.131Z,46.78
2022-08-26T12:13:56.192Z,46.67
2022-08-26T12:16:01.412Z,47.19
2022-08-26T12:18:29.629Z,46.50
2022-08-26T12:20:36.978Z,46.65
2022-08-26T12:22:48.085Z,45.81
2022-08-26T12:24:56.919Z,45.79
2022-08-26T12:27:20.954Z,44.48
2022-08-26T12:29:28.019Z,44.10
2022-08-26T12:31:36.865Z,44.66
2022-08-26T12:33:41.754Z,43.72
2022-08-26T12:35:48.543Z,43.57
2022-08-26T12:37:57.651Z,43.73
2022-08-26T12:40:35.543Z,43.41
2022-08-26T12:42:43.755Z,43.47
2022-08-26T12:44:57.377Z,43.58
2022-08-26T12:47:06.478Z,42.92
2022-08-26T12:49:14.358Z,41.84
2022-08-26T12:51:25.781Z,40.17
2022-08-26T12:53:33.091Z,41.50
2022-08-26T12:55:42.379Z,41.62
2022-08-26T12:57:47.287Z,41.34
2022-08-26T13:00:09.536Z,39.83
2022-08-26T13:02:38.305Z,41.53
2022-08-26T13:04:43.916Z,41.90
2022-08-26T13:06:48.727Z,41.63
2022-08-26T13:08:55.215Z,41.00
2022-08-26T13:11:11.989Z,40.40
2022-08-26T13:13:17.233Z,40.83
2022-08-26T13:15:22.061Z,40.29
2022-08-26T13:17:27.341Z,38.50
2022-08-26T13:19:32.045Z,39.00
2022-08-26T13:21:41.228Z,38.90
2022-08-26T13:23:46.392Z,38.67
2022-08-26T13:25:51.553Z,38.64
2022-08-26T13:27:56.281Z,38.52
2022-08-26T13:30:01.033Z,38.80
2022-08-26T13:32:08.023Z,39.47
2022-08-26T13:34:16.740Z,39.56
2022-08-26T13:36:21.477Z,39.87
2022-08-26T13:38:33.764Z,38.55
2022-08-26T13:40:38.827Z,38.16
2022-08-26T13:42:49.903Z,38.81
2022-08-26T13:44:54.920Z,38.54
2022-08-26T13:46:59.717Z,37.68
2022-08-26T13:49:04.570Z,38.38
2022-08-26T13:51:09.501Z,38.35
2022-08-26T13:53:14.905Z,37.86
2022-08-26T13:55:19.824Z,37.83
2022-08-26T13:57:24.576Z,37.27
2022-08-26T13:59:29.385Z,37.56
2022-08-26T14:01:34.865Z,37.71
2022-08-26T14:03:39.762Z,38.15
2022-08-26T14:05:44.609Z,38.12
2022-08-26T14:07:49.337Z,37.90
2022-08-26T14:09:54.097Z,38.01
2022-08-26T14:12:00.968Z,38.25
2022-08-26T14:14:07.066Z,38.04
2022-08-26T14:16:16.077Z,38.05
2022-08-26T14:18:27.784Z,37.64
2022-08-26T14:20:34.985Z,37.45
2022-08-26T14:22:52.080Z,37.34
2022-08-26T14:25:08.218Z,37.37
2022-08-26T14:27:13.240Z,36.82
2022-08-26T14:29:18.004Z,36.65
2022-08-26T14:31:22.928Z,37.07
2022-08-26T14:33:31.222Z,36.92
2022-08-26T14:35:36.001Z,36.22
2022-08-26T14:37:40.879Z,36.77
2022-08-26T14:39:46.225Z,38.08
2022-08-26T14:41:55.234Z,38.21
2022-08-26T14:44:02.772Z,38.04
2022-08-26T14:46:07.798Z,37.84
2022-08-26T14:48:12.713Z,37.63
2022-08-26T14:50:20.408Z,37.72
2022-08-26T14:52:25.177Z,36.96
2022-08-26T14:54:30.176Z,37.76
2022-08-26T14:56:36.097Z,38.49
2022-08-26T14:58:40.891Z,38.00
2022-08-26T15:00:45.749Z,37.92
2022-08-26T15:02:51.449Z,37.67
2022-08-26T15:04:56.363Z,37.55
2022-08-26T15:07:02.195Z,38.22
2022-08-26T15:09:07.082Z,38.04
2022-08-26T15:11:12.727Z,38.46
2022-08-26T15:13:17.459Z,38.36
2022-08-26T15:15:22.420Z,38.32
2022-08-26T15:17:27.724Z,38.48
2022-08-26T15:19:32.783Z,38.55
2022-08-26T15:21:38.241Z,38.36
2022-08-26T15:23:43.243Z,38.15
2022-08-26T15:25:52.700Z,38.49
2022-08-26T15:27:57.503Z,38.21
2022-08-26T15:30:04.008Z,38.11
2022-08-26T15:32:09.048Z,38.32
2022-08-26T15:34:16.679Z,37.95
2022-08-26T15:36:21.961Z,38.43
2022-08-26T15:38:28.121Z,38.15
2022-08-26T15:40:32.941Z,38.32
2022-08-26T15:42:37.934Z,38.56
2022-08-26T15:44:45.688Z,38.37
2022-08-26T15:46:55.293Z,37.73
2022-08-26T15:49:03.394Z,38.59
2022-08-26T15:51:18.287Z,38.80
2022-08-26T15:53:23.573Z,39.01
2022-08-26T15:55:28.488Z,39.20
2022-08-26T15:57:33.264Z,39.13
2022-08-26T15:59:38.085Z,39.00
2022-08-26T16:01:43.002Z,38.99
2022-08-26T16:03:47.777Z,38.69
2022-08-26T16:05:52.974Z,38.76
2022-08-26T16:07:57.738Z,38.70
2022-08-26T16:10:02.596Z,38.65
2022-08-26T16:12:07.771Z,38.72
2022-08-26T16:14:12.621Z,38.43
2022-08-26T16:16:18.385Z,38.61
2022-08-26T16:18:23.652Z,38.59
2022-08-26T16:20:28.948Z,38.90
2022-08-26T16:22:33.689Z,38.96
2022-08-26T16:24:38.852Z,38.90
2022-08-26T16:26:44.420Z,38.85
2022-08-26T16:28:49.448Z,39.05
2022-08-26T16:30:54.311Z,38.97
2022-08-26T16:32:59.145Z,38.99
2022-08-26T16:35:04.267Z,38.91
2022-08-26T16:37:09.042Z,38.98
2022-08-26T16:39:14.310Z,38.69
2022-08-26T16:41:19.567Z,38.78
2022-08-26T16:43:24.377Z,38.82
2022-08-26T16:45:29.220Z,39.02
2022-08-26T16:47:34.216Z,38.97
2022-08-26T16:49:39.208Z,39.17
2022-08-26T16:51:43.906Z,39.28
2022-08-26T16:53:49.135Z,39.30
2022-08-26T16:55:54.080Z,39.31
2022-08-26T16:57:59.333Z,39.34
2022-08-26T17:00:09.694Z,39.26
2022-08-26T17:02:14.493Z,39.41
2022-08-26T17:04:19.222Z,39.30
2022-08-26T17:06:24.073Z,39.48
2022-08-26T17:08:29.120Z,39.44
2022-08-26T17:10:34.396Z,39.54
2022-08-26T17:12:39.692Z,39.54
2022-08-26T17:14:45.810Z,39.59
2022-08-26T17:16:50.724Z,39.95
2022-08-26T17:18:56.914Z,39.85
2022-08-26T17:21:04.611Z,39.95
2022-08-26T17:23:09.600Z,40.06
2022-08-26T17:25:17.884Z,40.21
2022-08-26T17:27:22.574Z,40.45
2022-08-26T17:29:27.283Z,40.72
2022-08-26T17:31:32.178Z,40.60
2022-08-26T17:33:37.539Z,40.88
2022-08-26T17:35:42.927Z,40.94
2022-08-26T17:37:47.742Z,41.05
2022-08-26T17:39:52.490Z,41.25
2022-08-26T17:41:57.334Z,41.38
2022-08-26T17:44:02.185Z,41.44
2022-08-26T17:46:09.039Z,41.52
2022-08-26T17:48:14.089Z,41.61
2022-08-26T17:50:19.530Z,41.80
2022-08-26T17:52:24.275Z,41.70
2022-08-26T17:54:29.320Z,41.94
2022-08-26T17:56:35.953Z,41.92
2022-08-26T17:58:40.956Z,41.98
2022-08-26T18:00:54.081Z,42.03
2022-08-26T18:02:58.835Z,42.36
2022-08-26T18:05:03.751Z,42.68
2022-08-26T18:07:08.572Z,42.67
2022-08-26T18:09:13.406Z,42.89
2022-08-26T18:11:21.593Z,43.07
2022-08-26T18:13:26.372Z,43.24
2022-08-26T18:15:31.259Z,43.49
2022-08-26T18:17:36.344Z,44.01
2022-08-26T18:19:41.047Z,44.57
2022-08-26T18:21:45.918Z,45.29
2022-08-26T18:23:52.258Z,45.85
2022-08-26T18:25:57.138Z,46.00
2022-08-26T18:28:05.243Z,46.89
2022-08-26T18:30:20.348Z,47.44
2022-08-26T18:32:25.331Z,47.94
2022-08-26T18:34:31.733Z,48.24
2022-08-26T18:36:38.020Z,48.99
2022-08-26T18:38:42.864Z,49.59
2022-08-26T18:40:47.675Z,50.07
2022-08-26T18:42:54.222Z,50.60
2022-08-26T18:44:59.303Z,51.43
2022-08-26T18:47:04.521Z,52.04
2022-08-26T18:49:09.893Z,52.33
2022-08-26T18:51:19.355Z,52.53
2022-08-26T18:53:24.066Z,52.96
2022-08-26T18:55:28.977Z,52.87
2022-08-26T18:57:34.379Z,53.03
2022-08-26T18:59:39.198Z,53.74
2022-08-26T19:01:44.417Z,54.06
2022-08-26T19:03:49.307Z,54.25
2022-08-26T19:05:54.232Z,54.31
2022-08-26T19:07:59.347Z,54.58
2022-08-26T19:10:04.618Z,54.75
2022-08-26T19:12:10.737Z,54.46
2022-08-26T19:14:16.851Z,54.97
2022-08-26T19:16:24.883Z,55.02
2022-08-26T19:18:30.523Z,55.57
2022-08-26T19:20:44.719Z,56.60
2022-08-26T19:22:52.087Z,57.30
2022-08-26T19:24:57.396Z,58.46
2022-08-26T19:27:03.314Z,59.48
2022-08-26T19:29:08.498Z,60.17
2022-08-26T19:31:14.095Z,61.01
2022-08-26T19:33:19.312Z,61.73
2022-08-26T19:35:24.211Z,62.56
2022-08-26T19:37:29.919Z,63.45
2022-08-26T19:39:34.974Z,63.83
2022-08-26T19:41:41.048Z,64.20
2022-08-26T19:43:46.607Z,64.59
2022-08-26T19:45:52.070Z,65.08
2022-08-26T19:47:57.297Z,65.38
2022-08-26T19:50:02.049Z,65.69
2022-08-26T19:52:08.749Z,65.84
2022-08-26T19:54:13.826Z,65.61
2022-08-26T19:56:19.510Z,65.33
2022-08-26T19:58:24.794Z,65.43
2022-08-26T20:00:31.354Z,65.62
2022-08-26T20:02:36.484Z,65.81
2022-08-26T20:04:41.929Z,65.93
2022-08-26T20:06:47.179Z,66.17
2022-08-26T20:08:56.955Z,66.54
2022-08-26T20:11:04.872Z,67.04
2022-08-26T20:13:09.859Z,67.17
2022-08-26T20:15:15.232Z,67.59
2022-08-26T20:17:20.505Z,67.75
2022-08-26T20:19:25.664Z,68.14
2022-08-26T20:21:32.152Z,68.36
2022-08-26T20:23:37.297Z,68.52
2022-08-26T20:25:42.498Z,69.08
2022-08-26T20:27:47.644Z,68.92
2022-08-26T20:29:52.757Z,69.22
2022-08-26T20:31:58.194Z,69.38
2022-08-26T20:34:03.402Z,69.75
2022-08-26T20:36:09.080Z,70.14
2022-08-26T20:38:14.638Z,70.28
2022-08-26T20:40:20.651Z,70.33
2022-08-26T20:42:25.531Z,70.36
2022-08-26T20:44:30.459Z,70.37
2022-08-26T20:46:35.687Z,70.42
2022-08-26T20:48:40.543Z,70.52
2022-08-26T20:50:45.285Z,70.58
2022-08-26T20:52:50.137Z,70.94
2022-08-26T20:54:55.104Z,70.31
2022-08-26T20:57:00.369Z,70.62
2022-08-26T20:59:06.979Z,70.39
2022-08-26T21:01:18.651Z,70.45
2022-08-26T21:03:23.904Z,70.34
2022-08-26T21:05:28.908Z,70.06
2022-08-26T21:07:33.837Z,69.88
2022-08-26T21:09:38.991Z,69.71
2022-08-26T21:11:44.600Z,69.70
2022-08-26T21:14:04.315Z,69.73
2022-08-26T21:16:12.018Z,69.84
2022-08-26T21:18:16.875Z,69.89
2022-08-26T21:20:21.760Z,69.99
2022-08-26T21:22:26.602Z,69.79
2022-08-26T21:24:31.557Z,69.92
2022-08-26T21:26:36.913Z,70.10
2022-08-26T21:28:43.946Z,70.20
2022-08-26T21:30:48.688Z,70.39
2022-08-26T21:32:53.886Z,70.38
2022-08-26T21:34:59.833Z,70.49
2022-08-26T21:37:05.576Z,70.80
2022-08-26T21:39:21.318Z,71.05
2022-08-26T21:41:27.214Z,71.02
2022-08-26T21:43:35.150Z,71.17
2022-08-26T21:45:42.258Z,71.48
2022-08-26T21:47:47.516Z,71.53
2022-08-26T21:49:54.832Z,71.39
2022-08-26T21:51:59.610Z,71.06
2022-08-26T21:54:10.834Z,71.27
2022-08-26T21:56:19.860Z,71.11
2022-08-26T21:58:24.668Z,71.15
2022-08-26T22:00:29.810Z,71.00
2022-08-26T22:02:37.369Z,70.77
2022-08-26T22:04:46.838Z,70.78
2022-08-26T22:06:56.725Z,71.03
2022-08-26T22:09:03.086Z,70.97
2022-08-26T22:11:08.295Z,70.57
2022-08-26T22:13:13.440Z,70.53
2022-08-26T22:15:20.277Z,70.36
2022-08-26T22:17:25.066Z,70.07
2022-08-26T22:19:30.052Z,69.75
2022-08-26T22:21:38.059Z,69.36
2022-08-26T22:23:42.921Z,69.10
2022-08-26T22:25:47.871Z,68.82
2022-08-26T22:27:52.768Z,68.41
2022-08-26T22:29:57.484Z,68.07
2022-08-26T22:32:02.951Z,68.06
2022-08-26T22:34:09.528Z,67.74
2022-08-26T22:36:20.608Z,68.07
2022-08-26T22:38:25.545Z,67.82
2022-08-26T22:40:30.514Z,67.94
2022-08-26T22:42:35.518Z,68.03
2022-08-26T22:44:40.326Z,67.99
2022-08-26T22:46:45.662Z,67.97
2022-08-26T22:48:54.029Z,68.18
2022-08-26T22:51:00.366Z,68.30
2022-08-26T22:53:05.264Z,68.37
2022-08-26T22:55:11.681Z,67.97
2022-08-26T22:57:16.412Z,68.01
2022-08-26T22:59:21.140Z,68.25
2022-08-26T23:01:29.048Z,68.09
2022-08-26T23:03:34.263Z,68.11
2022-08-26T23:05:40.748Z,68.16
2022-08-26T23:07:45.543Z,68.04
2022-08-26T23:09:50.358Z,68.30
2022-08-26T23:11:55.636Z,68.52
2022-08-26T23:14:00.427Z,68.44
2022-08-26T23:16:09.709Z,68.75
2022-08-26T23:18:15.337Z,68.60
2022-08-26T23:20:20.247Z,68.79
2022-08-26T23:22:25.348Z,68.92
2022-08-26T23:24:30.185Z,69.05
2022-08-26T23:26:35.847Z,69.29
2022-08-26T23:28:40.577Z,69.38
2022-08-26T23:30:45.253Z,69.54
2022-08-26T23:32:50.349Z,69.74
2022-08-26T23:34:55.135Z,70.18
2022-08-26T23:37:00.995Z,70.38
2022-08-26T23:39:06.424Z,70.24
2022-08-26T23:41:11.231Z,70.33
2022-08-26T23:43:17.180Z,70.85
2022-08-26T23:45:22.799Z,70.72
2022-08-26T23:47:27.662Z,70.90
2022-08-26T23:49:33.282Z,70.96
2022-08-26T23:51:39.159Z,70.99
2022-08-26T23:53:44.040Z,71.19
2022-08-26T23:55:52.116Z,71.49
2022-08-26T23:57:56.823Z,71.35
